Time;durP1;ratioP1;P1;durP2;ratioP2;P2;SDS_P1;SDS_P2;PMS_P1;PMS_P2;Temp;Humidity;BMP_temperature;BMP_pressure;BME280_temperature;BME280_humidity;BME280_pressure;Samples;Min_cycle;Max_cycle;Signal;HPM_P1;HPM_P2
2021/08/31 00:02:19;;;;;;;13.73;10.93;;;;;;;16.84;70.09;97616.34;4918430;29;20031;-76
2021/08/31 00:04:44;;;;;;;13.63;11.13;;;;;;;16.83;70.16;97623.44;4919035;29;20070;-76
2021/08/31 00:07:10;;;;;;;14.90;10.50;;;;;;;16.82;69.91;97626.31;4910319;28;20741;-77
2021/08/31 00:09:35;;;;;;;12.88;10.75;;;;;;;16.78;70.01;97633.19;4937449;28;20437;-77
2021/08/31 00:12:00;;;;;;;12.65;10.02;;;;;;;16.74;70.01;97627.72;4970916;28;20429;-77
2021/08/31 00:14:26;;;;;;;13.18;10.77;;;;;;;16.69;69.98;97626.94;4951457;28;20692;-77
2021/08/31 00:16:52;;;;;;;11.90;10.25;;;;;;;16.67;70.15;97632.47;4933936;29;20430;-77
2021/08/31 00:19:17;;;;;;;15.25;10.90;;;;;;;16.60;70.40;97630.13;4924467;29;20407;-76
2021/08/31 00:21:44;;;;;;;14.70;11.05;;;;;;;16.54;70.24;97630.47;4945141;29;20046;-77
2021/08/31 00:24:09;;;;;;;13.65;11.52;;;;;;;16.49;70.69;97623.38;4950029;29;20039;-77
2021/08/31 00:26:34;;;;;;;15.35;10.95;;;;;;;16.50;70.32;97635.44;4949692;29;20038;-77
2021/08/31 00:29:00;;;;;;;12.65;9.80;;;;;;;16.55;70.05;97640.66;4949835;29;20652;-77
2021/08/31 00:31:25;;;;;;;11.00;9.50;;;;;;;16.48;69.98;97629.69;4940155;29;20325;-76
2021/08/31 00:33:50;;;;;;;12.57;10.07;;;;;;;16.50;70.03;97634.66;4949897;29;20106;-76
2021/08/31 00:36:16;;;;;;;13.55;10.55;;;;;;;16.44;69.84;97634.69;4917727;29;20043;-77
2021/08/31 00:38:41;;;;;;;12.30;10.40;;;;;;;16.54;69.59;97631.22;4933256;29;20039;-77
2021/08/31 00:41:07;;;;;;;13.30;10.73;;;;;;;16.43;69.40;97625.25;4902205;29;20438;-77
2021/08/31 00:43:46;;;;;;;12.52;9.55;;;;;;;16.26;69.63;97624.78;4930383;29;20039;-76
2021/08/31 00:46:14;;;;;;;15.02;10.40;;;;;;;16.34;69.71;97624.22;4930517;29;20043;-76
2021/08/31 00:48:41;;;;;;;14.00;10.73;;;;;;;16.29;69.37;97619.00;4929725;29;20031;-77
2021/08/31 00:51:10;;;;;;;13.90;10.70;;;;;;;16.18;69.71;97628.78;4930310;29;20061;-77
2021/08/31 00:53:37;;;;;;;13.00;10.13;;;;;;;16.26;70.31;97632.66;4930325;29;20086;-77
2021/08/31 00:56:03;;;;;;;14.77;11.93;;;;;;;16.31;70.27;97640.53;4956644;28;20042;-77
2021/08/31 00:58:31;;;;;;;14.82;12.00;;;;;;;16.29;70.63;97640.03;4917262;29;20044;-77
2021/08/31 01:00:58;;;;;;;15.93;12.40;;;;;;;16.34;70.57;97644.47;4927620;29;20463;-77
2021/08/31 01:03:24;;;;;;;14.98;12.18;;;;;;;16.29;70.60;97645.28;4955928;23;20047;-76
2021/08/31 01:05:49;;;;;;;15.73;12.73;;;;;;;16.32;71.49;97643.97;4949982;28;20043;-76
2021/08/31 01:08:15;;;;;;;17.27;11.30;;;;;;;16.38;70.76;97648.13;4952498;28;20741;-76
2021/08/31 01:10:40;;;;;;;17.35;13.10;;;;;;;16.36;71.24;97634.47;4952310;28;20035;-76
2021/08/31 01:13:06;;;;;;;16.10;11.73;;;;;;;16.39;71.05;97636.56;4953029;28;20088;-75
2021/08/31 01:15:32;;;;;;;15.23;12.38;;;;;;;16.38;70.73;97635.78;4938452;28;20034;-76
2021/08/31 01:18:16;;;;;;;14.25;12.00;;;;;;;16.13;71.27;97635.91;4953172;28;20063;-76
2021/08/31 01:20:44;;;;;;;14.75;12.10;;;;;;;16.29;70.80;97642.66;4922281;28;20724;-76
2021/08/31 01:23:10;;;;;;;14.68;11.95;;;;;;;16.28;70.66;97638.47;4939001;28;20173;-75
2021/08/31 01:25:36;;;;;;;17.40;11.82;;;;;;;16.22;70.73;97634.28;4938373;28;20030;-76
2021/08/31 01:28:02;;;;;;;15.25;11.82;;;;;;;16.21;70.57;97637.94;4931450;29;20031;-76
2021/08/31 01:30:27;;;;;;;15.80;12.65;;;;;;;16.18;70.78;97647.16;4935754;28;20039;-76
2021/08/31 01:32:52;;;;;;;16.08;12.40;;;;;;;16.11;70.68;97644.03;4934981;29;20031;-76
2021/08/31 01:35:20;;;;;;;16.55;11.20;;;;;;;16.07;70.47;97643.78;4951828;29;20466;-76
2021/08/31 01:37:45;;;;;;;12.90;11.10;;;;;;;16.01;70.67;97646.69;4934717;29;20363;-76
2021/08/31 01:40:12;;;;;;;14.15;10.52;;;;;;;15.96;70.77;97642.25;4957521;28;20041;-75
2021/08/31 01:42:37;;;;;;;15.60;11.73;;;;;;;15.93;70.82;97645.41;4954124;28;20034;-76
2021/08/31 01:45:03;;;;;;;14.55;11.45;;;;;;;15.90;71.14;97638.03;4953723;28;20035;-76
2021/08/31 01:47:28;;;;;;;14.88;11.02;;;;;;;15.91;70.87;97645.66;4971156;28;20061;-76
2021/08/31 01:49:53;;;;;;;15.27;11.68;;;;;;;15.89;70.90;97650.41;4937414;28;20039;-76
2021/08/31 01:52:19;;;;;;;15.02;11.90;;;;;;;15.88;71.05;97643.56;4937705;28;20035;-76
2021/08/31 01:54:44;;;;;;;16.67;11.52;;;;;;;15.87;71.12;97641.22;4940080;28;20034;-76
2021/08/31 01:57:09;;;;;;;17.50;12.65;;;;;;;15.82;71.11;97647.28;4971201;28;20035;-75
2021/08/31 01:59:35;;;;;;;15.40;12.50;;;;;;;15.79;71.69;97654.91;4951757;28;20465;-75
2021/08/31 02:02:00;;;;;;;16.90;12.57;;;;;;;15.76;71.98;97653.56;4953883;28;20030;-76
2021/08/31 02:04:25;;;;;;;16.33;12.23;;;;;;;15.78;71.71;97656.75;4953352;28;20582;-76
2021/08/31 02:06:51;;;;;;;15.50;11.88;;;;;;;15.77;71.58;97649.91;4970832;28;20034;-76
2021/08/31 02:09:16;;;;;;;17.00;12.35;;;;;;;15.78;71.14;97651.50;4921850;28;20023;-76
2021/08/31 02:11:42;;;;;;;15.02;11.45;;;;;;;15.76;71.55;97655.44;4953930;28;20035;-76
2021/08/31 02:14:07;;;;;;;15.75;11.82;;;;;;;15.74;71.48;97660.91;4953336;28;20070;-76
2021/08/31 02:16:33;;;;;;;14.38;11.05;;;;;;;15.70;71.39;97644.13;4956205;28;20038;-76
2021/08/31 02:18:59;;;;;;;14.73;12.13;;;;;;;15.70;71.44;97652.78;4940869;28;20409;-76
2021/08/31 02:21:24;;;;;;;18.20;14.02;;;;;;;15.72;71.79;97642.78;4941130;28;20130;-75
2021/08/31 02:23:49;;;;;;;14.98;12.15;;;;;;;15.71;71.45;97648.31;4956824;28;20697;-76
2021/08/31 02:26:15;;;;;;;13.95;10.70;;;;;;;15.67;71.31;97649.91;4956820;28;20086;-76
2021/08/31 02:28:40;;;;;;;12.88;9.88;;;;;;;15.63;71.10;97649.66;4940864;28;20023;-76
2021/08/31 02:31:05;;;;;;;13.48;10.15;;;;;;;15.62;70.98;97661.19;4957142;28;20381;-75
2021/08/31 02:33:33;;;;;;;11.93;9.40;;;;;;;15.58;70.99;97651.50;4940842;28;20023;-76
2021/08/31 02:35:58;;;;;;;13.30;10.60;;;;;;;15.49;71.01;97651.22;4957354;28;20070;-76
2021/08/31 02:38:24;;;;;;;12.27;9.98;;;;;;;15.47;71.17;97650.69;4956680;28;20145;-76
2021/08/31 02:40:49;;;;;;;15.07;11.18;;;;;;;15.44;71.06;97652.03;4940974;28;20425;-75
2021/08/31 02:43:14;;;;;;;14.18;10.70;;;;;;;15.43;70.92;97658.31;4956259;28;20038;-76
2021/08/31 02:45:40;;;;;;;13.93;10.13;;;;;;;15.39;71.11;97651.22;4956990;28;20038;-76
2021/08/31 02:48:05;;;;;;;14.48;11.70;;;;;;;15.38;71.37;97663.56;4956668;28;20106;-76
2021/08/31 02:50:31;;;;;;;13.50;10.77;;;;;;;15.39;71.18;97664.34;4955957;28;20039;-75
2021/08/31 02:52:56;;;;;;;11.95;9.55;;;;;;;15.45;70.88;97661.47;4940872;28;20121;-76
2021/08/31 02:55:22;;;;;;;12.90;10.27;;;;;;;15.50;71.15;97661.47;4952791;28;20070;-76
2021/08/31 02:57:47;;;;;;;15.50;10.55;;;;;;;15.62;71.10;97663.03;4959305;28;20031;-76
2021/08/31 03:00:18;;;;;;;14.23;11.00;;;;;;;15.66;71.08;97669.31;4942688;29;20039;-76
2021/08/31 03:02:44;;;;;;;13.98;11.35;;;;;;;15.69;71.00;97663.53;4937324;29;20074;-75
2021/08/31 03:05:10;;;;;;;13.98;10.70;;;;;;;15.76;70.82;97668.56;4921202;29;20506;-75
2021/08/31 03:07:36;;;;;;;15.85;11.00;;;;;;;15.78;71.01;97667.25;4949075;28;20402;-75
2021/08/31 03:10:03;;;;;;;15.23;12.75;;;;;;;15.76;71.79;97673.81;4956087;28;20066;-76
2021/08/31 03:12:29;;;;;;;15.55;12.43;;;;;;;15.79;71.53;97674.06;4956653;28;20405;-76
2021/08/31 03:14:54;;;;;;;15.70;11.73;;;;;;;15.80;71.43;97675.66;4940073;28;20034;-75
2021/08/31 03:17:19;;;;;;;17.42;12.60;;;;;;;15.85;71.24;97683.50;4955687;28;20594;-75
2021/08/31 03:19:45;;;;;;;15.88;12.45;;;;;;;15.82;71.25;97678.78;4955827;28;20520;-76
2021/08/31 03:22:11;;;;;;;13.63;11.38;;;;;;;15.82;71.18;97678.78;4955728;28;20089;-75
2021/08/31 03:24:40;;;;;;;15.63;12.60;;;;;;;15.70;70.89;97686.13;4956243;28;20438;-76
2021/08/31 03:27:06;;;;;;;16.52;11.68;;;;;;;15.73;71.02;97680.34;4955153;28;20073;-76
2021/08/31 03:29:32;;;;;;;15.27;11.95;;;;;;;15.66;71.24;97680.63;4973258;28;20033;-76
2021/08/31 03:31:57;;;;;;;15.63;12.32;;;;;;;15.62;71.09;97686.66;4923681;28;20019;-76
2021/08/31 03:34:22;;;;;;;16.35;11.75;;;;;;;15.60;70.91;97697.41;4939476;28;20085;-76
2021/08/31 03:36:49;;;;;;;15.82;13.05;;;;;;;15.53;71.30;97705.56;4940045;28;20070;-76
2021/08/31 03:39:17;;;;;;;15.38;11.98;;;;;;;15.57;71.55;97702.41;4972968;28;20070;-76
2021/08/31 03:41:42;;;;;;;17.55;13.35;;;;;;;15.61;71.59;97699.00;4955799;28;20046;-76
2021/08/31 03:44:08;;;;;;;18.98;14.45;;;;;;;15.68;72.01;97699.50;4936294;29;20039;-75
2021/08/31 03:46:33;;;;;;;20.55;15.07;;;;;;;15.69;71.78;97692.41;4936421;29;20187;-75
2021/08/31 03:48:58;;;;;;;19.67;14.75;;;;;;;15.70;71.42;97701.88;4920824;29;20162;-75
2021/08/31 03:51:24;;;;;;;20.95;14.25;;;;;;;15.71;71.61;97711.31;4945031;28;20050;-75
2021/08/31 03:53:49;;;;;;;19.63;13.93;;;;;;;15.70;71.76;97705.28;4972501;28;20031;-75
2021/08/31 03:56:14;;;;;;;21.42;14.93;;;;;;;15.73;71.87;97704.75;4937694;28;20043;-75
2021/08/31 03:58:40;;;;;;;20.10;15.38;;;;;;;15.77;71.77;97699.78;4955700;28;20029;-76
2021/08/31 04:01:05;;;;;;;20.08;13.43;;;;;;;15.73;71.68;97696.88;4938888;28;20041;-76
2021/08/31 04:03:30;;;;;;;19.92;14.40;;;;;;;15.85;71.54;97693.19;4954939;28;20043;-75
2021/08/31 04:05:56;;;;;;;19.35;14.15;;;;;;;15.87;71.54;97707.66;4955281;28;20074;-76
2021/08/31 04:08:21;;;;;;;21.10;13.63;;;;;;;15.77;71.64;97701.66;4990140;28;20041;-76
2021/08/31 04:10:47;;;;;;;16.50;13.32;;;;;;;15.75;71.80;97707.16;4965791;28;20030;-75
2021/08/31 04:13:13;;;;;;;16.75;13.05;;;;;;;15.81;71.53;97713.97;4954919;28;20122;-75
2021/08/31 04:15:39;;;;;;;15.38;12.88;;;;;;;15.90;71.30;97707.13;4955464;28;20097;-76
2021/08/31 04:18:05;;;;;;;14.50;12.00;;;;;;;15.91;71.05;97711.31;4922421;28;20031;-76
2021/08/31 04:20:30;;;;;;;20.80;13.95;;;;;;;15.94;71.20;97714.47;4954799;28;20042;-75
2021/08/31 04:22:56;;;;;;;16.85;13.48;;;;;;;15.90;70.96;97712.38;4971860;28;20039;-76
2021/08/31 04:25:22;;;;;;;17.25;12.80;;;;;;;15.81;71.07;97713.97;4938956;28;20038;-75
2021/08/31 04:27:47;;;;;;;20.20;14.20;;;;;;;15.77;71.46;97712.91;4955296;28;20430;-76
2021/08/31 04:30:14;;;;;;;18.15;12.93;;;;;;;15.77;71.18;97718.19;4922645;28;20142;-76
2021/08/31 04:32:39;;;;;;;18.38;12.73;;;;;;;15.73;71.00;97719.75;4967822;28;20410;-76
2021/08/31 04:35:05;;;;;;;16.63;11.57;;;;;;;15.68;70.90;97725.00;4954436;28;20035;-76
2021/08/31 04:37:31;;;;;;;14.32;11.60;;;;;;;15.48;71.16;97737.03;4954838;28;20433;-76
2021/08/31 04:39:59;;;;;;;14.60;11.23;;;;;;;15.44;70.75;97741.25;4937420;28;20434;-76
2021/08/31 04:42:25;;;;;;;14.32;11.07;;;;;;;15.57;71.01;97737.31;4922598;28;20038;-76
2021/08/31 04:44:50;;;;;;;15.05;12.45;;;;;;;15.54;71.08;97738.63;4954445;28;20038;-76
2021/08/31 04:47:17;;;;;;;15.52;11.65;;;;;;;15.54;70.99;97740.44;4954458;28;20130;-75
2021/08/31 04:49:42;;;;;;;14.95;12.55;;;;;;;15.55;71.05;97737.56;4954924;28;20034;-76
2021/08/31 04:52:10;;;;;;;15.10;12.30;;;;;;;15.53;70.91;97747.53;4954386;28;20039;-76
2021/08/31 04:54:36;;;;;;;15.57;11.82;;;;;;;15.42;71.26;97740.72;4971661;28;20067;-76
2021/08/31 04:57:02;;;;;;;15.93;12.60;;;;;;;15.34;71.37;97744.66;4943069;28;20421;-76
2021/08/31 04:59:27;;;;;;;15.45;12.07;;;;;;;15.30;71.54;97746.22;4953748;28;20030;-75
2021/08/31 05:01:53;;;;;;;16.40;12.63;;;;;;;15.28;71.59;97744.91;4937328;28;20112;-76
2021/08/31 05:04:18;;;;;;;16.35;12.30;;;;;;;15.24;71.71;97751.72;4937208;28;20044;-75
2021/08/31 05:06:44;;;;;;;18.02;12.25;;;;;;;15.19;72.16;97756.97;4942671;28;20036;-75
2021/08/31 05:09:09;;;;;;;15.88;12.57;;;;;;;15.14;72.59;97757.72;4973082;28;20038;-75
2021/08/31 05:11:40;;;;;;;18.60;13.15;;;;;;;15.15;72.36;97765.34;4966323;28;20031;-76
2021/08/31 05:14:05;;;;;;;17.77;12.43;;;;;;;15.13;72.13;97764.00;4970705;28;20097;-75
2021/08/31 05:16:32;;;;;;;18.13;14.30;;;;;;;15.01;72.49;97764.28;4970502;28;20440;-76
2021/08/31 05:18:58;;;;;;;17.85;13.57;;;;;;;15.01;72.66;97768.69;4921574;28;20023;-75
2021/08/31 05:21:23;;;;;;;21.40;13.88;;;;;;;15.07;72.93;97768.47;4937936;28;20061;-75
2021/08/31 05:23:48;;;;;;;18.55;13.52;;;;;;;15.10;72.76;97778.44;4937645;28;20042;-75
2021/08/31 05:26:14;;;;;;;17.33;12.85;;;;;;;15.19;72.16;97775.31;4954026;28;20035;-75
2021/08/31 05:28:39;;;;;;;22.70;14.02;;;;;;;15.28;72.46;97773.75;4938037;28;20478;-75
2021/08/31 05:31:04;;;;;;;20.10;13.85;;;;;;;15.27;72.28;97767.72;4953840;28;20037;-75
2021/08/31 05:33:30;;;;;;;15.52;12.52;;;;;;;15.39;72.50;97777.97;4937737;28;20121;-75
2021/08/31 05:35:56;;;;;;;19.30;13.98;;;;;;;15.36;72.86;97765.38;4953884;28;20061;-75
2021/08/31 05:38:21;;;;;;;21.30;14.20;;;;;;;15.34;73.09;97778.75;4937936;28;20498;-75
2021/08/31 05:40:46;;;;;;;20.73;14.75;;;;;;;15.28;73.21;97784.25;4970767;28;20225;-76
2021/08/31 05:43:13;;;;;;;20.77;13.75;;;;;;;15.24;73.25;97783.97;4953615;28;20623;-75
2021/08/31 05:45:38;;;;;;;20.48;13.98;;;;;;;15.28;73.20;97792.13;4954034;28;20026;-76
2021/08/31 05:48:04;;;;;;;18.75;13.13;;;;;;;15.29;73.12;97788.47;4937915;28;20039;-75
2021/08/31 05:50:29;;;;;;;17.60;13.10;;;;;;;15.41;72.58;97789.00;4954804;28;20042;-75
2021/08/31 05:52:54;;;;;;;17.63;12.93;;;;;;;15.55;72.34;97789.28;4925574;28;20035;-75
2021/08/31 05:55:20;;;;;;;21.58;13.75;;;;;;;15.59;72.72;97790.31;4959995;28;20042;-75
2021/08/31 05:57:45;;;;;;;19.63;14.40;;;;;;;15.53;72.89;97794.00;4922333;29;20038;-76
2021/08/31 06:00:11;;;;;;;21.70;14.88;;;;;;;15.72;72.56;97787.19;4949422;28;20076;-75
2021/08/31 06:02:38;;;;;;;21.42;14.63;;;;;;;15.82;72.31;97796.16;4957269;28;20062;-75
2021/08/31 06:05:05;;;;;;;19.95;14.45;;;;;;;15.88;71.93;97798.50;4957374;28;20038;-75
2021/08/31 06:07:34;;;;;;;17.60;13.70;;;;;;;15.85;72.47;97801.69;4938300;29;20066;-75
2021/08/31 06:09:59;;;;;;;18.55;14.13;;;;;;;15.91;71.65;97797.97;4943411;28;20038;-76
2021/08/31 06:12:25;;;;;;;17.45;12.73;;;;;;;15.99;71.90;97794.06;4939637;28;20398;-76
2021/08/31 06:14:50;;;;;;;17.90;12.88;;;;;;;16.05;71.65;97792.97;4939022;28;20430;-76
2021/08/31 06:17:18;;;;;;;18.45;13.52;;;;;;;16.08;71.79;97786.41;4973018;28;20041;-76
2021/08/31 06:19:44;;;;;;;17.92;13.02;;;;;;;16.16;71.61;97795.59;4939160;28;20508;-76
2021/08/31 06:22:09;;;;;;;19.30;13.30;;;;;;;16.13;71.80;97802.19;4955200;28;20043;-76
2021/08/31 06:24:35;;;;;;;19.17;13.73;;;;;;;16.19;71.65;97803.72;4971974;28;20394;-76
2021/08/31 06:27:00;;;;;;;19.58;13.45;;;;;;;16.14;71.72;97809.00;4939724;28;20034;-76
2021/08/31 06:29:25;;;;;;;16.60;12.43;;;;;;;16.25;71.54;97807.16;4955313;28;20466;-76
2021/08/31 06:31:51;;;;;;;17.58;12.68;;;;;;;16.25;71.44;97809.78;4972360;28;20053;-76
2021/08/31 06:34:16;;;;;;;17.65;13.48;;;;;;;16.32;71.18;97814.78;4954582;28;20081;-76
2021/08/31 06:36:41;;;;;;;15.02;12.40;;;;;;;16.32;71.28;97817.41;4955304;28;20553;-76
2021/08/31 06:39:07;;;;;;;16.70;12.60;;;;;;;16.26;71.26;97819.22;4972527;28;20030;-76
2021/08/31 06:41:32;;;;;;;16.83;12.75;;;;;;;16.32;71.56;97812.16;4955428;28;20229;-76
2021/08/31 06:43:57;;;;;;;16.48;12.55;;;;;;;16.24;71.42;97814.22;4971933;28;20158;-76
2021/08/31 06:46:23;;;;;;;16.85;12.60;;;;;;;16.38;71.37;97816.31;4938933;29;20497;-76
2021/08/31 06:48:48;;;;;;;17.27;13.02;;;;;;;16.41;71.65;97808.69;4919966;29;20728;-76
2021/08/31 06:51:14;;;;;;;16.92;11.88;;;;;;;16.51;71.20;97802.63;4943490;28;20039;-76
2021/08/31 06:53:41;;;;;;;14.80;11.55;;;;;;;16.58;70.92;97797.88;4954126;28;20138;-76
2021/08/31 06:56:07;;;;;;;14.75;10.57;;;;;;;16.73;70.13;97807.56;4965307;28;20164;-76
2021/08/31 06:58:32;;;;;;;14.90;11.20;;;;;;;16.67;70.54;97809.44;4954789;28;20079;-76
2021/08/31 07:00:58;;;;;;;13.50;10.35;;;;;;;16.83;69.43;97810.16;4956094;28;20532;-76
2021/08/31 07:03:23;;;;;;;12.77;10.05;;;;;;;16.94;68.75;97805.66;4945340;28;20089;-76
2021/08/31 07:05:49;;;;;;;14.48;10.43;;;;;;;17.03;69.20;97809.31;4922761;29;20043;-76
2021/08/31 07:08:14;;;;;;;14.93;10.55;;;;;;;16.92;70.11;97810.41;4954566;28;20393;-76
2021/08/31 07:10:40;;;;;;;12.82;10.65;;;;;;;16.93;69.82;97814.63;4954430;28;20508;-75
2021/08/31 07:13:05;;;;;;;14.05;10.75;;;;;;;16.89;70.00;97818.84;4971129;28;20026;-76
2021/08/31 07:15:32;;;;;;;11.95;9.80;;;;;;;17.00;69.71;97817.75;4938494;28;20090;-76
2021/08/31 07:18:01;;;;;;;11.82;9.68;;;;;;;17.25;68.82;97821.31;4954392;28;20078;-76
2021/08/31 07:20:27;;;;;;;14.23;10.70;;;;;;;17.30;68.75;97821.28;4938849;28;20034;-76
2021/08/31 07:22:55;;;;;;;12.73;10.02;;;;;;;17.38;68.13;97820.72;4922761;28;20290;-76
2021/08/31 07:25:21;;;;;;;11.18;9.00;;;;;;;17.40;68.04;97826.47;4923765;29;20035;-76
2021/08/31 07:27:46;;;;;;;10.90;9.25;;;;;;;17.56;67.87;97829.81;4929549;28;20058;-76
2021/08/31 07:30:12;;;;;;;11.63;9.38;;;;;;;17.57;67.18;97830.59;4937909;28;20122;-75
2021/08/31 07:32:37;;;;;;;12.70;8.38;;;;;;;17.52;67.27;97838.53;4953854;28;20514;-76
2021/08/31 07:35:03;;;;;;;12.13;9.25;;;;;;;17.63;67.34;97834.75;4938469;28;20097;-78
2021/08/31 07:37:29;;;;;;;9.32;8.38;;;;;;;17.95;66.79;97836.16;4938817;28;20517;-78
2021/08/31 07:39:54;;;;;;;11.95;8.90;;;;;;;18.18;66.03;97839.13;4953853;28;20094;-78
2021/08/31 07:42:20;;;;;;;10.02;8.60;;;;;;;18.45;65.28;97842.03;4938109;28;20050;-78
2021/08/31 07:44:45;;;;;;;10.27;7.68;;;;;;;18.52;64.82;97834.59;4953639;28;20086;-79
2021/08/31 07:47:10;;;;;;;8.85;7.38;;;;;;;18.67;64.32;97838.13;4953734;28;20062;-78
2021/08/31 07:49:36;;;;;;;8.05;7.05;;;;;;;18.45;63.27;97838.63;4934557;29;20117;-78
2021/08/31 07:52:02;;;;;;;9.40;6.88;;;;;;;18.77;62.74;97845.94;4911227;28;20055;-79
2021/08/31 07:54:27;;;;;;;7.57;6.65;;;;;;;18.98;62.09;97846.50;4967746;28;20035;-79
2021/08/31 07:56:53;;;;;;;8.10;6.70;;;;;;;19.25;61.11;97850.41;4922660;28;20125;-78
2021/08/31 07:59:18;;;;;;;7.32;6.57;;;;;;;19.42;60.67;97853.34;4954278;28;20031;-76
2021/08/31 08:01:43;;;;;;;7.53;6.82;;;;;;;19.33;60.57;97852.41;4969874;28;20035;-78
2021/08/31 08:04:09;;;;;;;7.70;6.60;;;;;;;19.10;60.99;97848.75;4936751;28;20521;-77
2021/08/31 08:06:36;;;;;;;7.25;5.65;;;;;;;19.18;60.67;97847.34;4953020;28;20034;-78
2021/08/31 08:09:03;;;;;;;7.57;6.03;;;;;;;19.11;60.66;97850.31;4921569;28;20109;-76
2021/08/31 08:11:28;;;;;;;8.75;6.95;;;;;;;18.90;61.76;97855.84;4922037;28;20321;-77
2021/08/31 08:13:54;;;;;;;10.48;6.25;;;;;;;18.89;61.44;97848.97;4920438;28;20126;-78
2021/08/31 08:16:20;;;;;;;7.60;6.43;;;;;;;19.04;61.33;97860.44;4921783;28;20026;-78
2021/08/31 08:18:47;;;;;;;8.35;6.80;;;;;;;18.33;62.51;97860.88;4937335;28;20026;-79
2021/08/31 08:21:12;;;;;;;8.23;6.55;;;;;;;18.68;62.91;97866.88;4937352;28;20062;-79
2021/08/31 08:23:38;;;;;;;12.25;6.88;;;;;;;18.46;63.24;97867.34;4936492;28;20128;-76
2021/08/31 08:26:04;;;;;;;7.75;6.82;;;;;;;18.50;63.04;97868.34;4921288;28;20477;-80
2021/08/31 08:28:29;;;;;;;9.20;6.63;;;;;;;18.74;63.11;97877.38;4921081;28;20026;-79
2021/08/31 08:30:55;;;;;;;7.80;6.50;;;;;;;18.56;62.48;97876.22;4933301;29;20540;-76
2021/08/31 08:33:21;;;;;;;6.60;5.93;;;;;;;18.42;63.01;97881.34;4933535;29;20031;-78
2021/08/31 08:35:47;;;;;;;7.75;5.85;;;;;;;18.42;63.53;97871.63;4933543;29;20038;-80
2021/08/31 08:38:12;;;;;;;9.35;6.18;;;;;;;18.63;62.92;97884.59;4933532;29;20019;-79
2021/08/31 08:40:38;;;;;;;7.35;6.30;;;;;;;18.34;62.78;97885.38;4933935;29;20039;-78
2021/08/31 08:43:05;;;;;;;8.25;6.70;;;;;;;18.44;62.07;97874.75;4933182;29;20043;-77
2021/08/31 08:45:31;;;;;;;7.18;5.75;;;;;;;18.65;62.25;97880.59;4933910;29;20091;-77
2021/08/31 08:47:56;;;;;;;7.07;5.18;;;;;;;18.64;61.83;97878.25;4933464;29;20486;-79
2021/08/31 08:50:22;;;;;;;5.82;5.22;;;;;;;18.82;61.97;97874.94;4933178;29;20035;-76
2021/08/31 08:52:47;;;;;;;6.68;6.03;;;;;;;18.86;61.59;97883.84;4917323;29;20114;-78
2021/08/31 08:55:13;;;;;;;8.57;6.03;;;;;;;18.87;61.51;97888.06;4920999;29;20549;-77
2021/08/31 08:57:40;;;;;;;7.90;5.50;;;;;;;18.96;61.53;97896.16;4920364;28;20034;-77
2021/08/31 09:00:07;;;;;;;6.93;5.97;;;;;;;19.20;60.78;97890.84;4917333;29;20035;-80
2021/08/31 09:02:38;;;;;;;6.32;5.32;;;;;;;19.61;60.48;97892.19;4917379;29;20074;-79
2021/08/31 09:05:09;;;;;;;7.20;5.78;;;;;;;20.07;59.21;97896.06;4932870;29;20043;-78
2021/08/31 09:07:37;;;;;;;6.25;4.72;;;;;;;20.14;56.55;97901.75;4956428;28;20041;-77
2021/08/31 09:10:22;;;;;;;6.25;4.70;;;;;;;20.20;57.04;97900.59;4955653;28;20034;-79
2021/08/31 09:12:50;;;;;;;5.28;4.78;;;;;;;20.22;57.72;97898.47;4922316;29;20031;-79
2021/08/31 09:15:29;;;;;;;5.53;4.57;;;;;;;20.36;58.08;97903.78;4917071;29;20034;-80
2021/08/31 09:18:08;;;;;;;6.03;4.72;;;;;;;20.30;55.85;97900.41;4932913;29;20031;-78
2021/08/31 09:20:36;;;;;;;5.25;4.60;;;;;;;20.57;55.38;97899.69;4949870;28;20113;-78
2021/08/31 09:23:03;;;;;;;4.88;4.45;;;;;;;20.54;55.89;97902.91;4951997;28;20041;-79
2021/08/31 09:25:39;;;;;;;7.53;5.63;;;;;;;20.42;56.21;97896.53;4919102;28;20129;-79
2021/08/31 09:28:32;;;;;;;5.25;4.53;;;;;;;20.17;56.38;97907.25;4935953;28;20027;-81
2021/08/31 09:31:09;;;;;;;4.82;4.20;;;;;;;20.67;56.05;97909.34;4933120;29;20129;-76
2021/08/31 09:33:44;;;;;;;8.23;5.28;;;;;;;20.90;56.40;97906.81;4901173;29;20023;-78
2021/08/31 09:36:15;;;;;;;4.55;4.15;;;;;;;21.24;53.67;97905.66;4917269;29;20063;-79
2021/08/31 09:38:49;;;;;;;6.07;4.32;;;;;;;21.65;54.71;97910.13;4932825;29;20407;-77
2021/08/31 09:41:32;;;;;;;4.38;3.97;;;;;;;21.36;52.65;97908.56;4901863;29;20470;-79
2021/08/31 09:44:04;;;;;;;6.05;4.80;;;;;;;21.62;53.22;97908.84;4932538;29;20046;-77
2021/08/31 09:47:04;;;;;;;4.95;3.95;;;;;;;21.60;54.40;97907.59;4945717;28;20047;-79
2021/08/31 09:49:39;;;;;;;4.43;3.90;;;;;;;21.75;52.73;97915.19;4950287;28;20027;-78
2021/08/31 09:52:12;;;;;;;4.45;3.45;;;;;;;21.80;52.30;97903.72;4936233;28;20041;-78
2021/08/31 09:54:45;;;;;;;5.07;3.78;;;;;;;21.93;51.61;97910.03;4935582;28;20038;-79
2021/08/31 09:57:25;;;;;;;4.07;3.63;;;;;;;21.73;51.94;97904.13;4964357;28;20045;-76
2021/08/31 09:59:51;;;;;;;4.45;3.70;;;;;;;22.14;50.31;97900.53;4935797;28;20045;-76
2021/08/31 10:02:17;;;;;;;4.57;3.60;;;;;;;22.35;49.74;97897.41;4935602;28;20538;-76
2021/08/31 10:04:42;;;;;;;5.10;3.85;;;;;;;22.61;50.39;97902.84;4951814;28;20121;-79
2021/08/31 10:07:07;;;;;;;3.33;2.92;;;;;;;22.78;49.81;97902.91;4935457;28;20031;-79
2021/08/31 10:09:33;;;;;;;5.18;3.53;;;;;;;23.02;49.50;97896.44;4936544;28;20495;-77
2021/08/31 10:12:00;;;;;;;3.85;2.97;;;;;;;22.86;48.55;97904.06;4936186;28;20094;-77
2021/08/31 10:14:26;;;;;;;4.25;3.20;;;;;;;23.02;48.94;97901.75;4920357;28;20648;-78
2021/08/31 10:16:52;;;;;;;3.90;3.50;;;;;;;22.73;47.18;97907.59;4935993;28;20019;-78
2021/08/31 10:19:17;;;;;;;3.75;3.35;;;;;;;23.20;46.76;97910.56;4920132;28;20034;-78
2021/08/31 10:21:43;;;;;;;3.60;3.30;;;;;;;23.61;46.71;97909.38;4952180;28;20155;-77
2021/08/31 10:24:09;;;;;;;4.25;3.30;;;;;;;23.42;45.98;97912.34;4951236;28;20034;-77
2021/08/31 10:26:37;;;;;;;3.50;3.20;;;;;;;23.15;47.03;97905.41;4918120;28;20520;-79
2021/08/31 10:29:18;;;;;;;4.60;3.20;;;;;;;23.28;48.25;97914.34;4952006;28;20019;-80
2021/08/31 10:31:46;;;;;;;3.92;3.10;;;;;;;23.10;46.73;97913.50;4934623;28;20031;-80
2021/08/31 10:34:33;;;;;;;6.28;3.40;;;;;;;22.71;48.20;97913.19;4934963;28;20041;-79
2021/08/31 10:37:04;;;;;;;3.53;3.10;;;;;;;22.92;47.80;97913.44;4952986;28;20122;-77
2021/08/31 10:39:53;;;;;;;4.20;3.08;;;;;;;22.80;48.33;97910.56;4939118;28;20027;-77
2021/08/31 10:42:24;;;;;;;4.00;3.60;;;;;;;22.92;48.60;97910.78;4955346;28;20047;-77
2021/08/31 10:44:51;;;;;;;4.07;3.70;;;;;;;23.15;48.50;97916.03;4955368;28;20033;-79
2021/08/31 10:47:39;;;;;;;3.97;3.58;;;;;;;23.13;46.90;97910.25;4972559;28;20041;-78
2021/08/31 10:50:05;;;;;;;3.67;3.38;;;;;;;22.93;47.08;97920.31;4954741;28;20031;-78
2021/08/31 10:52:52;;;;;;;4.63;3.45;;;;;;;22.56;48.82;97901.09;4954158;28;20046;-79
2021/08/31 10:55:24;;;;;;;3.45;3.15;;;;;;;22.72;48.98;97913.97;4917988;29;20039;-78
2021/08/31 10:57:50;;;;;;;3.75;3.30;;;;;;;23.18;46.57;97913.56;4934909;29;20031;-78
2021/08/31 11:00:15;;;;;;;3.53;3.22;;;;;;;23.65;45.09;97914.91;4931858;28;20030;-78
2021/08/31 11:02:50;;;;;;;3.50;3.20;;;;;;;23.10;45.84;97919.63;4954234;28;20552;-79
2021/08/31 11:05:18;;;;;;;3.30;3.00;;;;;;;23.08;44.96;97923.66;4954179;28;20166;-78
2021/08/31 11:08:07;;;;;;;3.33;3.03;;;;;;;23.03;46.23;97923.78;4968949;28;20049;-78
2021/08/31 11:10:34;;;;;;;3.72;3.17;;;;;;;22.88;45.11;97919.69;4945793;28;20038;-78
2021/08/31 11:13:22;;;;;;;3.17;2.88;;;;;;;22.69;46.55;97922.53;4956152;28;20390;-79
2021/08/31 11:15:48;;;;;;;3.40;3.08;;;;;;;22.61;45.49;97924.84;4956550;28;20482;-78
2021/08/31 11:18:15;;;;;;;3.20;2.90;;;;;;;22.38;46.87;97923.31;4955993;28;20034;-78
2021/08/31 11:20:42;;;;;;;6.00;3.47;;;;;;;22.18;47.40;97924.56;4940076;28;20035;-78
2021/08/31 11:23:19;;;;;;;3.25;2.95;;;;;;;21.73;47.39;97930.63;4923680;28;20126;-78